sensor_id;sensor_type;location;lat;lon;timestamp;P1;durP1;ratioP1;P2;durP2;ratioP2
75689;SDS011;64303;53.118;9.044;2023-09-18T00:00:51;9.98;;;8.70;;
75689;SDS011;64303;53.118;9.044;2023-09-18T00:03:37;11.38;;;10.18;;
75689;SDS011;64303;53.118;9.044;2023-09-18T00:06:04;12.05;;;10.15;;
75689;SDS011;64303;53.118;9.044;2023-09-18T00:08:32;10.95;;;7.45;;
75689;SDS011;64303;53.118;9.044;2023-09-18T00:11:00;11.02;;;8.07;;
75689;SDS011;64303;53.118;9.044;2023-09-18T00:13:26;10.10;;;9.05;;
75689;SDS011;64303;53.118;9.044;2023-09-18T00:15:54;10.82;;;8.48;;
75689;SDS011;64303;53.118;9.044;2023-09-18T00:18:21;10.45;;;7.65;;
75689;SDS011;64303;53.118;9.044;2023-09-18T00:20:48;13.73;;;8.48;;
75689;SDS011;64303;53.118;9.044;2023-09-18T00:23:17;9.30;;;8.30;;
75689;SDS011;64303;53.118;9.044;2023-09-18T00:25:44;13.13;;;9.20;;
75689;SDS011;64303;53.118;9.044;2023-09-18T00:28:11;10.82;;;9.73;;
75689;SDS011;64303;53.118;9.044;2023-09-18T00:30:41;10.23;;;9.05;;
75689;SDS011;64303;53.118;9.044;2023-09-18T00:33:12;11.75;;;9.55;;
75689;SDS011;64303;53.118;9.044;2023-09-18T00:35:39;9.73;;;8.82;;
75689;SDS011;64303;53.118;9.044;2023-09-18T00:38:06;10.32;;;8.38;;
75689;SDS011;64303;53.118;9.044;2023-09-18T00:40:33;10.43;;;8.90;;
75689;SDS011;64303;53.118;9.044;2023-09-18T00:42:59;11.38;;;9.18;;
75689;SDS011;64303;53.118;9.044;2023-09-18T00:45:27;11.30;;;8.23;;
75689;SDS011;64303;53.118;9.044;2023-09-18T00:47:54;10.52;;;9.35;;
75689;SDS011;64303;53.118;9.044;2023-09-18T00:50:21;11.80;;;8.38;;
75689;SDS011;64303;53.118;9.044;2023-09-18T00:52:48;12.38;;;9.93;;
75689;SDS011;64303;53.118;9.044;2023-09-18T00:55:16;11.10;;;9.57;;
75689;SDS011;64303;53.118;9.044;2023-09-18T00:57:42;10.95;;;8.80;;
75689;SDS011;64303;53.118;9.044;2023-09-18T01:00:10;9.93;;;8.90;;
75689;SDS011;64303;53.118;9.044;2023-09-18T01:02:42;10.15;;;8.77;;
75689;SDS011;64303;53.118;9.044;2023-09-18T01:05:10;11.05;;;8.75;;
75689;SDS011;64303;53.118;9.044;2023-09-18T01:07:37;11.27;;;9.63;;
75689;SDS011;64303;53.118;9.044;2023-09-18T01:10:04;11.18;;;8.02;;
75689;SDS011;64303;53.118;9.044;2023-09-18T01:12:33;10.27;;;8.32;;
75689;SDS011;64303;53.118;9.044;2023-09-18T01:15:06;11.00;;;9.02;;
75689;SDS011;64303;53.118;9.044;2023-09-18T01:17:36;10.93;;;9.15;;
75689;SDS011;64303;53.118;9.044;2023-09-18T01:22:33;10.82;;;8.93;;
75689;SDS011;64303;53.118;9.044;2023-09-18T01:25:00;10.93;;;9.68;;
75689;SDS011;64303;53.118;9.044;2023-09-18T01:27:27;10.02;;;8.52;;
75689;SDS011;64303;53.118;9.044;2023-09-18T01:29:54;12.10;;;7.97;;
75689;SDS011;64303;53.118;9.044;2023-09-18T01:32:21;10.82;;;8.57;;
75689;SDS011;64303;53.118;9.044;2023-09-18T01:34:52;10.68;;;8.02;;
75689;SDS011;64303;53.118;9.044;2023-09-18T01:37:22;12.95;;;8.00;;
75689;SDS011;64303;53.118;9.044;2023-09-18T01:39:52;10.73;;;7.63;;
75689;SDS011;64303;53.118;9.044;2023-09-18T01:42:19;9.07;;;7.82;;
75689;SDS011;64303;53.118;9.044;2023-09-18T01:44:47;8.95;;;8.00;;
75689;SDS011;64303;53.118;9.044;2023-09-18T01:47:14;10.00;;;8.43;;
75689;SDS011;64303;53.118;9.044;2023-09-18T01:49:42;10.35;;;9.32;;
75689;SDS011;64303;53.118;9.044;2023-09-18T01:52:09;9.32;;;8.25;;
75689;SDS011;64303;53.118;9.044;2023-09-18T01:54:36;9.10;;;7.13;;
75689;SDS011;64303;53.118;9.044;2023-09-18T01:57:04;9.88;;;7.40;;
75689;SDS011;64303;53.118;9.044;2023-09-18T01:59:33;10.15;;;8.82;;
75689;SDS011;64303;53.118;9.044;2023-09-18T02:02:01;9.80;;;8.60;;
75689;SDS011;64303;53.118;9.044;2023-09-18T02:04:29;9.25;;;7.35;;
75689;SDS011;64303;53.118;9.044;2023-09-18T02:06:55;8.77;;;6.97;;
75689;SDS011;64303;53.118;9.044;2023-09-18T02:09:22;8.68;;;7.05;;
75689;SDS011;64303;53.118;9.044;2023-09-18T02:11:49;13.63;;;7.97;;
75689;SDS011;64303;53.118;9.044;2023-09-18T02:14:17;10.40;;;7.97;;
75689;SDS011;64303;53.118;9.044;2023-09-18T02:16:43;9.57;;;7.72;;
75689;SDS011;64303;53.118;9.044;2023-09-18T02:19:11;9.30;;;7.30;;
75689;SDS011;64303;53.118;9.044;2023-09-18T02:24:05;10.88;;;7.00;;
75689;SDS011;64303;53.118;9.044;2023-09-18T02:26:33;9.95;;;8.27;;
75689;SDS011;64303;53.118;9.044;2023-09-18T02:29:00;11.27;;;8.88;;
75689;SDS011;64303;53.118;9.044;2023-09-18T02:31:31;8.93;;;7.97;;
75689;SDS011;64303;53.118;9.044;2023-09-18T02:33:58;9.38;;;6.63;;
75689;SDS011;64303;53.118;9.044;2023-09-18T02:36:25;10.35;;;8.65;;
75689;SDS011;64303;53.118;9.044;2023-09-18T02:38:51;9.50;;;6.63;;
75689;SDS011;64303;53.118;9.044;2023-09-18T02:41:18;8.02;;;6.97;;
75689;SDS011;64303;53.118;9.044;2023-09-18T02:43:45;9.80;;;7.50;;
75689;SDS011;64303;53.118;9.044;2023-09-18T02:46:12;10.02;;;7.50;;
75689;SDS011;64303;53.118;9.044;2023-09-18T02:48:40;10.10;;;7.97;;
75689;SDS011;64303;53.118;9.044;2023-09-18T02:51:07;10.18;;;9.18;;
75689;SDS011;64303;53.118;9.044;2023-09-18T02:53:34;10.60;;;7.63;;
75689;SDS011;64303;53.118;9.044;2023-09-18T02:56:01;9.98;;;7.80;;
75689;SDS011;64303;53.118;9.044;2023-09-18T02:58:28;9.25;;;7.47;;
75689;SDS011;64303;53.118;9.044;2023-09-18T03:00:56;8.52;;;7.43;;
75689;SDS011;64303;53.118;9.044;2023-09-18T03:03:23;10.75;;;7.40;;
75689;SDS011;64303;53.118;9.044;2023-09-18T03:05:52;9.90;;;7.07;;
75689;SDS011;64303;53.118;9.044;2023-09-18T03:08:18;11.90;;;9.02;;
75689;SDS011;64303;53.118;9.044;2023-09-18T03:10:46;10.10;;;8.02;;
75689;SDS011;64303;53.118;9.044;2023-09-18T03:13:13;10.02;;;8.38;;
75689;SDS011;64303;53.118;9.044;2023-09-18T03:15:44;8.70;;;7.78;;
75689;SDS011;64303;53.118;9.044;2023-09-18T03:18:11;9.65;;;7.43;;
75689;SDS011;64303;53.118;9.044;2023-09-18T03:20:38;10.40;;;9.35;;
75689;SDS011;64303;53.118;9.044;2023-09-18T03:23:06;8.85;;;7.50;;
75689;SDS011;64303;53.118;9.044;2023-09-18T03:25:33;9.32;;;8.32;;
75689;SDS011;64303;53.118;9.044;2023-09-18T03:28:00;9.93;;;8.60;;
75689;SDS011;64303;53.118;9.044;2023-09-18T03:30:30;9.63;;;7.45;;
75689;SDS011;64303;53.118;9.044;2023-09-18T03:32:56;9.98;;;7.50;;
75689;SDS011;64303;53.118;9.044;2023-09-18T03:35:24;10.50;;;7.70;;
75689;SDS011;64303;53.118;9.044;2023-09-18T03:37:52;9.55;;;6.97;;
75689;SDS011;64303;53.118;9.044;2023-09-18T03:40:21;9.88;;;6.65;;
75689;SDS011;64303;53.118;9.044;2023-09-18T03:42:49;10.57;;;7.80;;
75689;SDS011;64303;53.118;9.044;2023-09-18T03:45:16;8.63;;;7.35;;
75689;SDS011;64303;53.118;9.044;2023-09-18T03:47:45;9.50;;;6.97;;
75689;SDS011;64303;53.118;9.044;2023-09-18T03:50:12;8.85;;;7.95;;
75689;SDS011;64303;53.118;9.044;2023-09-18T03:52:39;10.52;;;7.18;;
75689;SDS011;64303;53.118;9.044;2023-09-18T03:55:07;13.07;;;8.50;;
75689;SDS011;64303;53.118;9.044;2023-09-18T04:00:03;9.35;;;7.25;;
75689;SDS011;64303;53.118;9.044;2023-09-18T04:02:37;10.77;;;7.15;;
75689;SDS011;64303;53.118;9.044;2023-09-18T04:05:04;10.13;;;6.05;;
75689;SDS011;64303;53.118;9.044;2023-09-18T04:07:32;12.02;;;8.18;;
75689;SDS011;64303;53.118;9.044;2023-09-18T04:10:00;10.00;;;7.28;;
75689;SDS011;64303;53.118;9.044;2023-09-18T04:12:28;9.10;;;6.50;;
75689;SDS011;64303;53.118;9.044;2023-09-18T04:14:55;9.93;;;8.25;;
75689;SDS011;64303;53.118;9.044;2023-09-18T04:17:22;9.20;;;8.20;;
75689;SDS011;64303;53.118;9.044;2023-09-18T04:19:50;8.65;;;5.43;;
75689;SDS011;64303;53.118;9.044;2023-09-18T04:22:16;9.45;;;7.82;;
75689;SDS011;64303;53.118;9.044;2023-09-18T04:24:43;10.73;;;8.18;;
75689;SDS011;64303;53.118;9.044;2023-09-18T04:27:10;8.10;;;5.72;;
75689;SDS011;64303;53.118;9.044;2023-09-18T04:29:36;10.45;;;8.18;;
75689;SDS011;64303;53.118;9.044;2023-09-18T04:32:05;9.30;;;8.40;;
75689;SDS011;64303;53.118;9.044;2023-09-18T04:34:33;11.10;;;8.73;;
75689;SDS011;64303;53.118;9.044;2023-09-18T04:37:00;10.52;;;7.70;;
75689;SDS011;64303;53.118;9.044;2023-09-18T04:39:29;12.13;;;7.63;;
75689;SDS011;64303;53.118;9.044;2023-09-18T04:42:00;9.88;;;7.80;;
75689;SDS011;64303;53.118;9.044;2023-09-18T04:44:29;10.18;;;7.70;;
75689;SDS011;64303;53.118;9.044;2023-09-18T04:46:56;9.50;;;6.40;;
75689;SDS011;64303;53.118;9.044;2023-09-18T04:49:25;11.50;;;6.95;;
75689;SDS011;64303;53.118;9.044;2023-09-18T04:51:53;8.55;;;7.47;;
75689;SDS011;64303;53.118;9.044;2023-09-18T04:54:21;9.32;;;7.03;;
75689;SDS011;64303;53.118;9.044;2023-09-18T04:56:48;7.55;;;6.72;;
75689;SDS011;64303;53.118;9.044;2023-09-18T04:59:15;8.13;;;6.68;;
75689;SDS011;64303;53.118;9.044;2023-09-18T05:01:42;8.07;;;6.47;;
75689;SDS011;64303;53.118;9.044;2023-09-18T05:04:09;8.30;;;5.90;;
75689;SDS011;64303;53.118;9.044;2023-09-18T05:06:37;10.18;;;7.30;;
75689;SDS011;64303;53.118;9.044;2023-09-18T05:09:05;7.45;;;6.40;;
75689;SDS011;64303;53.118;9.044;2023-09-18T05:11:31;7.75;;;6.15;;
75689;SDS011;64303;53.118;9.044;2023-09-18T05:13:58;7.50;;;5.18;;
75689;SDS011;64303;53.118;9.044;2023-09-18T05:16:25;9.10;;;7.28;;
75689;SDS011;64303;53.118;9.044;2023-09-18T05:18:51;8.52;;;6.78;;
75689;SDS011;64303;53.118;9.044;2023-09-18T05:21:18;8.75;;;5.10;;
75689;SDS011;64303;53.118;9.044;2023-09-18T05:23:51;9.13;;;7.82;;
75689;SDS011;64303;53.118;9.044;2023-09-18T05:26:19;9.00;;;5.00;;
75689;SDS011;64303;53.118;9.044;2023-09-18T05:28:48;7.70;;;5.80;;
75689;SDS011;64303;53.118;9.044;2023-09-18T05:31:15;8.18;;;5.93;;
75689;SDS011;64303;53.118;9.044;2023-09-18T05:33:42;8.57;;;7.47;;
75689;SDS011;64303;53.118;9.044;2023-09-18T05:36:08;9.18;;;7.35;;
75689;SDS011;64303;53.118;9.044;2023-09-18T05:38:35;8.98;;;5.40;;
75689;SDS011;64303;53.118;9.044;2023-09-18T05:41:04;9.77;;;7.43;;
75689;SDS011;64303;53.118;9.044;2023-09-18T05:43:31;9.80;;;5.22;;
75689;SDS011;64303;53.118;9.044;2023-09-18T05:45:57;9.25;;;6.40;;
75689;SDS011;64303;53.118;9.044;2023-09-18T05:48:24;7.78;;;6.40;;
75689;SDS011;64303;53.118;9.044;2023-09-18T05:50:51;8.52;;;5.80;;
75689;SDS011;64303;53.118;9.044;2023-09-18T05:53:19;9.52;;;7.35;;
75689;SDS011;64303;53.118;9.044;2023-09-18T05:55:46;8.25;;;6.18;;
75689;SDS011;64303;53.118;9.044;2023-09-18T05:58:14;8.75;;;6.22;;
75689;SDS011;64303;53.118;9.044;2023-09-18T06:00:43;7.85;;;7.03;;
75689;SDS011;64303;53.118;9.044;2023-09-18T06:03:09;7.78;;;6.15;;
75689;SDS011;64303;53.118;9.044;2023-09-18T06:05:37;7.78;;;6.30;;
75689;SDS011;64303;53.118;9.044;2023-09-18T06:08:04;7.20;;;5.35;;
75689;SDS011;64303;53.118;9.044;2023-09-18T06:10:31;7.28;;;5.35;;
75689;SDS011;64303;53.118;9.044;2023-09-18T06:12:57;7.72;;;5.97;;
75689;SDS011;64303;53.118;9.044;2023-09-18T06:15:30;7.07;;;5.65;;
75689;SDS011;64303;53.118;9.044;2023-09-18T06:17:57;9.00;;;5.93;;
75689;SDS011;64303;53.118;9.044;2023-09-18T06:20:24;8.55;;;5.60;;
75689;SDS011;64303;53.118;9.044;2023-09-18T06:22:50;6.32;;;4.82;;
75689;SDS011;64303;53.118;9.044;2023-09-18T06:25:17;8.55;;;6.10;;
75689;SDS011;64303;53.118;9.044;2023-09-18T06:27:44;7.95;;;4.75;;
75689;SDS011;64303;53.118;9.044;2023-09-18T06:30:11;6.30;;;5.05;;
75689;SDS011;64303;53.118;9.044;2023-09-18T06:32:39;6.28;;;4.10;;
75689;SDS011;64303;53.118;9.044;2023-09-18T06:35:06;9.35;;;5.85;;
75689;SDS011;64303;53.118;9.044;2023-09-18T06:37:34;9.40;;;5.65;;
75689;SDS011;64303;53.118;9.044;2023-09-18T06:40:01;8.05;;;4.90;;
75689;SDS011;64303;53.118;9.044;2023-09-18T06:42:29;7.50;;;5.78;;
75689;SDS011;64303;53.118;9.044;2023-09-18T06:44:58;7.60;;;4.38;;
75689;SDS011;64303;53.118;9.044;2023-09-18T06:47:26;7.60;;;6.05;;
75689;SDS011;64303;53.118;9.044;2023-09-18T06:49:54;8.40;;;6.20;;
75689;SDS011;64303;53.118;9.044;2023-09-18T06:52:21;6.97;;;4.57;;
75689;SDS011;64303;53.118;9.044;2023-09-18T06:54:48;5.90;;;5.30;;
75689;SDS011;64303;53.118;9.044;2023-09-18T06:57:14;7.40;;;4.75;;
75689;SDS011;64303;53.118;9.044;2023-09-18T06:59:41;6.55;;;5.80;;
75689;SDS011;64303;53.118;9.044;2023-09-18T07:02:07;8.02;;;4.75;;
75689;SDS011;64303;53.118;9.044;2023-09-18T07:04:34;5.55;;;3.70;;
75689;SDS011;64303;53.118;9.044;2023-09-18T07:07:03;7.68;;;4.57;;
75689;SDS011;64303;53.118;9.044;2023-09-18T07:09:29;7.18;;;4.10;;
75689;SDS011;64303;53.118;9.044;2023-09-18T07:11:56;6.95;;;4.03;;
75689;SDS011;64303;53.118;9.044;2023-09-18T07:14:23;6.25;;;4.75;;
75689;SDS011;64303;53.118;9.044;2023-09-18T07:16:49;6.50;;;3.78;;
75689;SDS011;64303;53.118;9.044;2023-09-18T07:19:16;8.20;;;5.35;;
75689;SDS011;64303;53.118;9.044;2023-09-18T07:21:43;5.80;;;4.35;;
75689;SDS011;64303;53.118;9.044;2023-09-18T07:24:11;6.50;;;4.43;;
75689;SDS011;64303;53.118;9.044;2023-09-18T07:26:44;9.20;;;5.68;;
75689;SDS011;64303;53.118;9.044;2023-09-18T07:29:12;6.07;;;4.32;;
75689;SDS011;64303;53.118;9.044;2023-09-18T07:31:40;7.45;;;5.13;;
75689;SDS011;64303;53.118;9.044;2023-09-18T07:34:07;6.53;;;5.28;;
75689;SDS011;64303;53.118;9.044;2023-09-18T07:36:34;6.20;;;4.97;;
75689;SDS011;64303;53.118;9.044;2023-09-18T07:39:01;7.65;;;5.85;;
75689;SDS011;64303;53.118;9.044;2023-09-18T07:41:31;6.50;;;4.95;;
75689;SDS011;64303;53.118;9.044;2023-09-18T07:43:58;8.40;;;5.20;;
75689;SDS011;64303;53.118;9.044;2023-09-18T07:46:24;6.88;;;5.05;;
75689;SDS011;64303;53.118;9.044;2023-09-18T07:48:51;9.40;;;6.15;;
75689;SDS011;64303;53.118;9.044;2023-09-18T07:51:18;7.68;;;5.60;;
75689;SDS011;64303;53.118;9.044;2023-09-18T07:53:44;10.38;;;5.93;;
75689;SDS011;64303;53.118;9.044;2023-09-18T07:56:12;7.93;;;6.00;;
75689;SDS011;64303;53.118;9.044;2023-09-18T07:58:40;9.82;;;5.95;;
75689;SDS011;64303;53.118;9.044;2023-09-18T08:01:06;8.82;;;7.78;;
75689;SDS011;64303;53.118;9.044;2023-09-18T08:03:34;10.27;;;6.22;;
75689;SDS011;64303;53.118;9.044;2023-09-18T08:06:01;10.00;;;6.47;;
75689;SDS011;64303;53.118;9.044;2023-09-18T08:08:30;10.30;;;7.05;;
75689;SDS011;64303;53.118;9.044;2023-09-18T08:10:58;9.18;;;7.80;;
75689;SDS011;64303;53.118;9.044;2023-09-18T08:13:26;9.30;;;6.55;;
75689;SDS011;64303;53.118;9.044;2023-09-18T08:15:55;10.15;;;8.43;;
75689;SDS011;64303;53.118;9.044;2023-09-18T08:18:22;8.73;;;7.78;;
75689;SDS011;64303;53.118;9.044;2023-09-18T08:20:52;9.13;;;6.03;;
75689;SDS011;64303;53.118;9.044;2023-09-18T08:23:18;9.18;;;7.05;;
75689;SDS011;64303;53.118;9.044;2023-09-18T08:25:45;9.95;;;7.15;;
75689;SDS011;64303;53.118;9.044;2023-09-18T08:28:12;10.82;;;6.53;;
75689;SDS011;64303;53.118;9.044;2023-09-18T08:30:40;9.95;;;7.45;;
75689;SDS011;64303;53.118;9.044;2023-09-18T08:33:11;9.07;;;7.65;;
75689;SDS011;64303;53.118;9.044;2023-09-18T08:35:38;9.77;;;8.02;;
75689;SDS011;64303;53.118;9.044;2023-09-18T08:38:04;8.70;;;6.38;;
75689;SDS011;64303;53.118;9.044;2023-09-18T08:40:32;9.25;;;7.20;;
75689;SDS011;64303;53.118;9.044;2023-09-18T08:43:00;10.18;;;7.70;;
75689;SDS011;64303;53.118;9.044;2023-09-18T08:45:31;9.18;;;7.13;;
75689;SDS011;64303;53.118;9.044;2023-09-18T08:48:02;9.88;;;6.60;;
75689;SDS011;64303;53.118;9.044;2023-09-18T08:50:30;8.55;;;6.22;;
75689;SDS011;64303;53.118;9.044;2023-09-18T08:52:57;9.10;;;6.32;;
75689;SDS011;64303;53.118;9.044;2023-09-18T08:55:24;9.30;;;7.40;;
75689;SDS011;64303;53.118;9.044;2023-09-18T08:57:51;7.70;;;6.10;;
75689;SDS011;64303;53.118;9.044;2023-09-18T09:00:18;8.57;;;5.70;;
75689;SDS011;64303;53.118;9.044;2023-09-18T09:02:45;9.25;;;7.68;;
75689;SDS011;64303;53.118;9.044;2023-09-18T09:05:14;8.38;;;5.28;;
75689;SDS011;64303;53.118;9.044;2023-09-18T09:07:42;8.98;;;5.75;;
75689;SDS011;64303;53.118;9.044;2023-09-18T09:10:08;7.50;;;5.38;;
75689;SDS011;64303;53.118;9.044;2023-09-18T09:12:46;8.90;;;6.13;;
75689;SDS011;64303;53.118;9.044;2023-09-18T09:15:12;9.18;;;5.47;;
75689;SDS011;64303;53.118;9.044;2023-09-18T09:17:38;8.57;;;6.50;;
75689;SDS011;64303;53.118;9.044;2023-09-18T09:20:08;7.85;;;5.75;;
75689;SDS011;64303;53.118;9.044;2023-09-18T09:22:36;7.28;;;5.07;;
75689;SDS011;64303;53.118;9.044;2023-09-18T09:25:04;8.45;;;6.13;;
75689;SDS011;64303;53.118;9.044;2023-09-18T09:27:41;7.70;;;5.22;;
75689;SDS011;64303;53.118;9.044;2023-09-18T09:30:08;7.50;;;5.05;;
75689;SDS011;64303;53.118;9.044;2023-09-18T09:32:35;8.07;;;5.90;;
75689;SDS011;64303;53.118;9.044;2023-09-18T09:35:03;8.40;;;5.53;;
75689;SDS011;64303;53.118;9.044;2023-09-18T09:37:33;8.63;;;5.00;;
75689;SDS011;64303;53.118;9.044;2023-09-18T09:40:02;8.65;;;4.53;;
75689;SDS011;64303;53.118;9.044;2023-09-18T09:42:38;8.30;;;3.80;;
75689;SDS011;64303;53.118;9.044;2023-09-18T09:45:07;7.82;;;3.85;;
75689;SDS011;64303;53.118;9.044;2023-09-18T09:47:38;6.28;;;3.70;;
75689;SDS011;64303;53.118;9.044;2023-09-18T09:50:08;7.15;;;3.72;;
75689;SDS011;64303;53.118;9.044;2023-09-18T09:52:36;9.90;;;3.25;;
75689;SDS011;64303;53.118;9.044;2023-09-18T09:55:18;7.32;;;2.90;;
75689;SDS011;64303;53.118;9.044;2023-09-18T09:57:47;7.13;;;2.90;;
75689;SDS011;64303;53.118;9.044;2023-09-18T10:00:14;6.40;;;2.50;;
75689;SDS011;64303;53.118;9.044;2023-09-18T10:02:56;6.47;;;3.38;;
75689;SDS011;64303;53.118;9.044;2023-09-18T10:05:24;8.98;;;2.97;;
75689;SDS011;64303;53.118;9.044;2023-09-18T10:07:53;6.90;;;3.38;;
75689;SDS011;64303;53.118;9.044;2023-09-18T10:10:22;7.70;;;3.65;;
75689;SDS011;64303;53.118;9.044;2023-09-18T10:12:48;7.15;;;2.47;;
75689;SDS011;64303;53.118;9.044;2023-09-18T10:15:15;5.25;;;2.70;;
75689;SDS011;64303;53.118;9.044;2023-09-18T10:17:43;8.43;;;3.42;;
75689;SDS011;64303;53.118;9.044;2023-09-18T10:20:12;7.85;;;3.35;;
75689;SDS011;64303;53.118;9.044;2023-09-18T10:22:45;6.80;;;2.63;;
75689;SDS011;64303;53.118;9.044;2023-09-18T10:25:13;6.78;;;4.15;;
75689;SDS011;64303;53.118;9.044;2023-09-18T10:27:46;6.90;;;2.97;;
75689;SDS011;64303;53.118;9.044;2023-09-18T10:30:14;7.45;;;2.70;;
75689;SDS011;64303;53.118;9.044;2023-09-18T10:32:43;5.68;;;3.63;;
75689;SDS011;64303;53.118;9.044;2023-09-18T10:35:11;10.55;;;3.08;;
75689;SDS011;64303;53.118;9.044;2023-09-18T10:37:38;5.20;;;2.78;;
75689;SDS011;64303;53.118;9.044;2023-09-18T10:40:06;5.97;;;3.67;;
75689;SDS011;64303;53.118;9.044;2023-09-18T10:42:34;6.85;;;4.53;;
75689;SDS011;64303;53.118;9.044;2023-09-18T10:45:05;6.10;;;3.40;;
75689;SDS011;64303;53.118;9.044;2023-09-18T10:47:37;10.27;;;2.97;;
75689;SDS011;64303;53.118;9.044;2023-09-18T10:50:05;7.85;;;2.72;;
75689;SDS011;64303;53.118;9.044;2023-09-18T10:52:33;6.70;;;4.05;;
75689;SDS011;64303;53.118;9.044;2023-09-18T10:55:00;4.97;;;2.92;;
75689;SDS011;64303;53.118;9.044;2023-09-18T10:57:32;7.40;;;3.03;;
75689;SDS011;64303;53.118;9.044;2023-09-18T10:59:59;7.85;;;3.72;;
75689;SDS011;64303;53.118;9.044;2023-09-18T11:02:27;5.82;;;2.72;;
75689;SDS011;64303;53.118;9.044;2023-09-18T11:04:54;7.40;;;2.75;;
75689;SDS011;64303;53.118;9.044;2023-09-18T11:07:22;6.50;;;3.10;;
75689;SDS011;64303;53.118;9.044;2023-09-18T11:09:49;8.75;;;4.03;;
75689;SDS011;64303;53.118;9.044;2023-09-18T11:12:17;9.88;;;2.63;;
75689;SDS011;64303;53.118;9.044;2023-09-18T11:14:45;5.10;;;3.00;;
75689;SDS011;64303;53.118;9.044;2023-09-18T11:17:29;8.70;;;2.83;;
75689;SDS011;64303;53.118;9.044;2023-09-18T11:20:01;5.85;;;2.97;;
75689;SDS011;64303;53.118;9.044;2023-09-18T11:22:37;10.50;;;3.22;;
75689;SDS011;64303;53.118;9.044;2023-09-18T11:27:52;8.07;;;2.85;;
75689;SDS011;64303;53.118;9.044;2023-09-18T11:30:20;5.43;;;2.30;;
75689;SDS011;64303;53.118;9.044;2023-09-18T11:32:48;6.93;;;4.15;;
75689;SDS011;64303;53.118;9.044;2023-09-18T11:35:15;8.95;;;1.73;;
75689;SDS011;64303;53.118;9.044;2023-09-18T11:37:43;6.72;;;2.85;;
75689;SDS011;64303;53.118;9.044;2023-09-18T11:45:52;5.32;;;3.22;;
75689;SDS011;64303;53.118;9.044;2023-09-18T11:48:22;5.75;;;2.53;;
75689;SDS011;64303;53.118;9.044;2023-09-18T11:50:53;5.57;;;2.65;;
75689;SDS011;64303;53.118;9.044;2023-09-18T11:53:20;5.47;;;2.97;;
75689;SDS011;64303;53.118;9.044;2023-09-18T11:55:47;5.88;;;2.63;;
75689;SDS011;64303;53.118;9.044;2023-09-18T11:58:14;4.60;;;3.00;;
75689;SDS011;64303;53.118;9.044;2023-09-18T12:00:40;5.97;;;2.65;;
75689;SDS011;64303;53.118;9.044;2023-09-18T12:03:16;6.82;;;3.17;;
75689;SDS011;64303;53.118;9.044;2023-09-18T12:05:55;4.70;;;2.50;;
75689;SDS011;64303;53.118;9.044;2023-09-18T12:08:23;5.60;;;2.85;;
75689;SDS011;64303;53.118;9.044;2023-09-18T12:10:51;9.65;;;4.00;;
75689;SDS011;64303;53.118;9.044;2023-09-18T12:15:45;8.68;;;4.32;;
75689;SDS011;64303;53.118;9.044;2023-09-18T12:18:13;6.82;;;3.13;;
75689;SDS011;64303;53.118;9.044;2023-09-18T12:20:47;5.45;;;4.60;;
75689;SDS011;64303;53.118;9.044;2023-09-18T12:23:16;5.78;;;3.50;;
75689;SDS011;64303;53.118;9.044;2023-09-18T12:25:45;7.38;;;3.90;;
75689;SDS011;64303;53.118;9.044;2023-09-18T12:28:12;4.88;;;3.45;;
75689;SDS011;64303;53.118;9.044;2023-09-18T12:30:40;6.40;;;4.05;;
75689;SDS011;64303;53.118;9.044;2023-09-18T12:33:07;7.53;;;3.03;;
75689;SDS011;64303;53.118;9.044;2023-09-18T12:35:35;6.07;;;3.38;;
75689;SDS011;64303;53.118;9.044;2023-09-18T12:38:12;6.10;;;3.60;;
75689;SDS011;64303;53.118;9.044;2023-09-18T12:40:41;6.03;;;4.15;;
75689;SDS011;64303;53.118;9.044;2023-09-18T12:43:09;7.63;;;3.03;;
75689;SDS011;64303;53.118;9.044;2023-09-18T12:45:36;8.23;;;3.35;;
75689;SDS011;64303;53.118;9.044;2023-09-18T12:48:03;5.68;;;3.42;;
75689;SDS011;64303;53.118;9.044;2023-09-18T12:50:31;8.75;;;3.20;;
75689;SDS011;64303;53.118;9.044;2023-09-18T12:53:07;5.32;;;2.92;;
75689;SDS011;64303;53.118;9.044;2023-09-18T12:55:37;6.78;;;3.35;;
75689;SDS011;64303;53.118;9.044;2023-09-18T12:58:09;7.80;;;2.97;;
75689;SDS011;64303;53.118;9.044;2023-09-18T13:00:36;6.65;;;3.35;;
75689;SDS011;64303;53.118;9.044;2023-09-18T13:03:03;7.55;;;3.55;;
75689;SDS011;64303;53.118;9.044;2023-09-18T13:05:30;5.13;;;3.70;;
75689;SDS011;64303;53.118;9.044;2023-09-18T13:08:02;5.53;;;3.15;;
75689;SDS011;64303;53.118;9.044;2023-09-18T13:10:40;3.70;;;3.13;;
75689;SDS011;64303;53.118;9.044;2023-09-18T13:13:09;5.53;;;2.88;;
75689;SDS011;64303;53.118;9.044;2023-09-18T13:15:42;5.07;;;3.05;;
75689;SDS011;64303;53.118;9.044;2023-09-18T13:18:10;4.65;;;3.97;;
75689;SDS011;64303;53.118;9.044;2023-09-18T13:20:37;5.97;;;4.47;;
75689;SDS011;64303;53.118;9.044;2023-09-18T13:23:06;5.57;;;3.70;;
75689;SDS011;64303;53.118;9.044;2023-09-18T13:25:33;4.63;;;3.00;;
75689;SDS011;64303;53.118;9.044;2023-09-18T13:28:01;6.78;;;3.78;;
75689;SDS011;64303;53.118;9.044;2023-09-18T13:30:30;5.55;;;3.85;;
75689;SDS011;64303;53.118;9.044;2023-09-18T13:33:03;5.10;;;3.75;;
75689;SDS011;64303;53.118;9.044;2023-09-18T13:35:31;6.72;;;4.47;;
75689;SDS011;64303;53.118;9.044;2023-09-18T13:37:58;6.10;;;2.92;;
75689;SDS011;64303;53.118;9.044;2023-09-18T13:40:24;6.13;;;4.13;;
75689;SDS011;64303;53.118;9.044;2023-09-18T13:42:51;4.85;;;3.15;;
75689;SDS011;64303;53.118;9.044;2023-09-18T13:45:18;4.50;;;2.75;;
75689;SDS011;64303;53.118;9.044;2023-09-18T13:47:46;7.13;;;3.63;;
75689;SDS011;64303;53.118;9.044;2023-09-18T13:50:14;5.93;;;3.97;;
75689;SDS011;64303;53.118;9.044;2023-09-18T13:52:41;4.05;;;3.55;;
75689;SDS011;64303;53.118;9.044;2023-09-18T13:55:08;6.18;;;3.70;;
75689;SDS011;64303;53.118;9.044;2023-09-18T13:57:35;6.00;;;3.75;;
75689;SDS011;64303;53.118;9.044;2023-09-18T14:00:03;9.00;;;3.17;;
75689;SDS011;64303;53.118;9.044;2023-09-18T14:02:37;6.00;;;2.78;;
75689;SDS011;64303;53.118;9.044;2023-09-18T14:05:06;5.57;;;2.67;;
75689;SDS011;64303;53.118;9.044;2023-09-18T14:07:34;6.05;;;2.60;;
75689;SDS011;64303;53.118;9.044;2023-09-18T14:10:01;4.57;;;2.95;;
75689;SDS011;64303;53.118;9.044;2023-09-18T14:12:29;7.10;;;3.90;;
75689;SDS011;64303;53.118;9.044;2023-09-18T14:14:57;5.70;;;3.42;;
75689;SDS011;64303;53.118;9.044;2023-09-18T14:17:25;5.30;;;3.30;;
75689;SDS011;64303;53.118;9.044;2023-09-18T14:19:52;6.32;;;2.50;;
75689;SDS011;64303;53.118;9.044;2023-09-18T14:22:21;5.25;;;2.35;;
75689;SDS011;64303;53.118;9.044;2023-09-18T14:24:47;3.88;;;2.33;;
75689;SDS011;64303;53.118;9.044;2023-09-18T14:27:14;5.82;;;2.22;;
75689;SDS011;64303;53.118;9.044;2023-09-18T14:29:41;4.25;;;2.65;;
75689;SDS011;64303;53.118;9.044;2023-09-18T14:32:07;4.35;;;1.92;;
75689;SDS011;64303;53.118;9.044;2023-09-18T14:34:34;5.03;;;2.58;;
75689;SDS011;64303;53.118;9.044;2023-09-18T14:37:01;4.95;;;2.55;;
75689;SDS011;64303;53.118;9.044;2023-09-18T14:41:57;6.13;;;1.85;;
75689;SDS011;64303;53.118;9.044;2023-09-18T14:44:24;3.70;;;2.55;;
75689;SDS011;64303;53.118;9.044;2023-09-18T14:46:52;4.07;;;2.45;;
75689;SDS011;64303;53.118;9.044;2023-09-18T14:49:19;4.18;;;2.58;;
75689;SDS011;64303;53.118;9.044;2023-09-18T14:51:46;5.38;;;2.30;;
75689;SDS011;64303;53.118;9.044;2023-09-18T14:54:14;3.45;;;2.08;;
75689;SDS011;64303;53.118;9.044;2023-09-18T14:56:42;6.18;;;1.73;;
75689;SDS011;64303;53.118;9.044;2023-09-18T14:59:11;3.83;;;1.85;;
75689;SDS011;64303;53.118;9.044;2023-09-18T15:01:38;3.35;;;1.83;;
75689;SDS011;64303;53.118;9.044;2023-09-18T15:04:08;3.60;;;2.90;;
75689;SDS011;64303;53.118;9.044;2023-09-18T15:06:35;3.63;;;2.15;;
75689;SDS011;64303;53.118;9.044;2023-09-18T15:09:02;2.90;;;1.70;;
75689;SDS011;64303;53.118;9.044;2023-09-18T15:11:29;4.60;;;2.22;;